Time;durP1;ratioP1;P1;durP2;ratioP2;P2;SDS_P1;SDS_P2;PMS_P1;PMS_P2;Temp;Humidity;BMP_temperature;BMP_pressure;BME280_temperature;BME280_humidity;BME280_pressure;Samples;Min_cycle;Max_cycle;Signal;HPM_P1;HPM_P2
2022/05/27 00:00:33;;;;;;;5.50;3.22;;;;;;;15.30;65.73;100535.25;4956869;29;20062;-64
2022/05/27 00:03:23;;;;;;;6.25;3.53;;;;;;;15.30;65.73;100520.44;4942363;29;20435;-63
2022/05/27 00:06:11;;;;;;;5.97;2.80;;;;;;;15.30;65.78;100523.03;4942921;29;20046;-63
2022/05/27 00:09:04;;;;;;;5.07;2.63;;;;;;;15.29;65.73;100534.34;4942827;29;20159;-64
2022/05/27 00:11:48;;;;;;;5.60;2.70;;;;;;;15.28;65.68;100523.91;4957230;29;20094;-63
2022/05/27 00:14:32;;;;;;;4.80;2.28;;;;;;;15.30;65.96;100516.97;4957297;29;20046;-64
2022/05/27 00:17:31;;;;;;;5.40;2.90;;;;;;;15.28;65.69;100511.72;4957287;29;20046;-63
2022/05/27 00:20:23;;;;;;;3.72;2.28;;;;;;;15.29;65.76;100508.22;4956904;29;20046;-63
2022/05/27 00:23:16;;;;;;;10.65;3.30;;;;;;;15.28;65.76;100503.88;4956892;29;20079;-63
2022/05/27 00:26:06;;;;;;;5.55;2.55;;;;;;;15.28;65.62;100500.41;4942320;29;20057;-63
2022/05/27 00:29:02;;;;;;;7.38;2.60;;;;;;;15.27;65.60;100504.75;4941771;29;20054;-63
2022/05/27 00:31:55;;;;;;;3.17;2.15;;;;;;;15.27;65.64;100512.56;4941698;29;20075;-63
2022/05/27 00:34:45;;;;;;;7.22;2.90;;;;;;;15.27;65.63;100507.34;4956403;29;20526;-63
2022/05/27 00:37:38;;;;;;;6.20;2.72;;;;;;;15.25;65.64;100501.28;4942066;29;20147;-63
2022/05/27 00:40:23;;;;;;;5.13;2.67;;;;;;;15.26;65.67;100505.59;4941589;29;20041;-63
2022/05/27 00:43:13;;;;;;;4.72;2.63;;;;;;;15.26;65.69;100491.69;4942120;29;20098;-63
2022/05/27 00:46:34;;;;;;;3.85;2.25;;;;;;;15.25;65.83;100496.06;4956494;29;20050;-63
2022/05/27 00:49:27;;;;;;;8.38;3.03;;;;;;;15.25;65.70;100487.34;4953853;29;20050;-62
2022/05/27 00:52:28;;;;;;;4.03;2.60;;;;;;;15.22;65.58;100491.69;4956237;29;20118;-62
2022/05/27 00:55:21;;;;;;;5.65;2.25;;;;;;;15.23;65.55;100490.81;4942120;29;20414;-64
2022/05/27 00:58:22;;;;;;;7.68;2.45;;;;;;;15.21;65.61;100484.72;4942001;29;20058;-63
2022/05/27 01:01:16;;;;;;;6.10;2.25;;;;;;;15.23;65.59;100495.19;4941251;29;20082;-64
2022/05/27 01:04:15;;;;;;;7.80;2.53;;;;;;;15.20;65.58;100496.00;4941530;29;20054;-63
2022/05/27 01:07:07;;;;;;;5.35;2.22;;;;;;;15.22;65.76;100488.22;4956087;28;20113;-63
2022/05/27 01:10:01;;;;;;;4.07;2.13;;;;;;;15.19;65.46;100478.59;4941573;29;20090;-63
2022/05/27 01:13:14;;;;;;;4.28;2.08;;;;;;;15.19;65.63;100475.13;4941753;29;20050;-63
2022/05/27 01:16:20;;;;;;;5.90;2.28;;;;;;;15.19;65.58;100476.00;4941398;29;20051;-64
2022/05/27 01:23:01;;;;;;;6.38;2.53;;;;;;;15.17;65.56;100467.31;4955505;29;20463;-63
2022/05/27 01:26:10;;;;;;;3.67;2.33;;;;;;;15.16;65.51;100468.19;4941483;29;20406;-63
2022/05/27 01:29:12;;;;;;;3.33;1.88;;;;;;;15.15;65.41;100468.16;4941372;29;20073;-63
2022/05/27 01:32:15;;;;;;;3.95;2.28;;;;;;;15.14;65.50;100458.56;4955430;29;20057;-63
2022/05/27 01:35:44;;;;;;;3.90;2.38;;;;;;;15.12;65.68;100458.56;4941436;29;20415;-63
2022/05/27 01:38:43;;;;;;;3.83;1.90;;;;;;;15.12;65.49;100449.84;4940795;29;20090;-63
2022/05/27 01:41:48;;;;;;;7.03;2.10;;;;;;;15.12;65.58;100458.56;4941025;29;20410;-63
2022/05/27 01:45:20;;;;;;;4.35;2.25;;;;;;;15.13;65.61;100455.09;4940927;29;20517;-63
2022/05/27 01:48:26;;;;;;;10.27;2.22;;;;;;;15.13;65.48;100452.50;4934124;29;20095;-64
2022/05/27 01:51:40;;;;;;;3.35;1.90;;;;;;;15.11;65.57;100450.72;4940552;29;20102;-63
2022/05/27 01:54:31;;;;;;;2.90;1.90;;;;;;;15.10;65.62;100441.19;4955656;29;20107;-63
2022/05/27 01:57:20;;;;;;;4.40;2.17;;;;;;;15.10;65.64;100447.25;4940945;29;20298;-63
2022/05/27 02:00:27;;;;;;;8.07;2.30;;;;;;;15.09;65.68;100435.06;4940851;29;20050;-63
2022/05/27 02:03:38;;;;;;;4.68;2.05;;;;;;;15.10;65.62;100433.34;4955061;29;20066;-63
2022/05/27 02:06:51;;;;;;;3.60;1.65;;;;;;;15.08;65.66;100441.16;4940922;29;20610;-63
2022/05/27 02:09:47;;;;;;;2.60;1.65;;;;;;;15.07;65.52;100429.84;4955206;29;20059;-63
2022/05/27 02:13:00;;;;;;;4.15;2.22;;;;;;;15.09;65.60;100431.59;4940268;29;20113;-65
2022/05/27 02:15:47;;;;;;;5.65;2.35;;;;;;;15.09;65.65;100434.22;4940758;29;20050;-63
2022/05/27 02:18:41;;;;;;;2.92;1.98;;;;;;;15.10;65.55;100438.56;4940372;29;20090;-63
2022/05/27 02:21:50;;;;;;;5.40;2.22;;;;;;;15.07;65.73;100436.78;4943957;29;20139;-64
2022/05/27 02:25:01;;;;;;;5.28;1.90;;;;;;;15.08;65.86;100433.31;4959286;29;20085;-63
2022/05/27 02:27:56;;;;;;;4.28;2.00;;;;;;;15.08;65.67;100435.94;4958525;29;20054;-63
2022/05/27 02:30:56;;;;;;;4.07;1.95;;;;;;;15.09;65.70;100434.22;4944741;29;20050;-64
2022/05/27 02:37:09;;;;;;;5.85;2.22;;;;;;;15.08;65.71;100430.72;4959119;29;20110;-64
2022/05/27 02:39:58;;;;;;;3.22;2.15;;;;;;;15.07;65.73;100423.75;4958411;29;20050;-63
2022/05/27 02:43:10;;;;;;;5.38;2.15;;;;;;;15.06;65.80;100427.22;4944149;29;20525;-65
2022/05/27 02:46:19;;;;;;;4.45;2.08;;;;;;;15.06;65.72;100422.00;4958227;29;20482;-62
2022/05/27 02:49:29;;;;;;;7.65;2.65;;;;;;;15.06;65.94;100419.38;4943996;29;20561;-63
2022/05/27 02:52:25;;;;;;;4.97;2.40;;;;;;;15.07;65.89;100428.97;4958342;29;20411;-63
2022/05/27 02:55:21;;;;;;;6.25;2.55;;;;;;;15.06;65.82;100427.22;4944274;29;20546;-64
2022/05/27 02:58:16;;;;;;;5.20;2.40;;;;;;;15.07;66.15;100429.84;4943453;29;20046;-62
2022/05/27 03:01:01;;;;;;;7.65;3.25;;;;;;;15.05;66.17;100426.38;4958407;29;20075;-63
2022/05/27 03:03:46;;;;;;;7.93;2.90;;;;;;;15.07;65.97;100426.34;4943705;29;20053;-63
2022/05/27 03:06:59;;;;;;;4.68;2.65;;;;;;;15.04;66.14;100424.63;4958647;29;20130;-63
2022/05/27 03:09:53;;;;;;;7.03;2.95;;;;;;;15.06;66.25;100422.00;4919933;29;20411;-63
2022/05/27 03:13:14;;;;;;;8.82;3.17;;;;;;;15.07;66.25;100428.97;4943551;29;20058;-63
2022/05/27 03:16:38;;;;;;;8.60;2.90;;;;;;;15.05;66.34;100415.91;4943455;29;20096;-63
2022/05/27 03:20:24;;;;;;;9.30;4.20;;;;;;;15.07;66.43;100411.59;4939573;29;20055;-63
2022/05/27 03:23:20;;;;;;;6.32;3.53;;;;;;;15.04;66.56;100424.63;4958074;29;20054;-63
2022/05/27 03:26:30;;;;;;;8.95;3.22;;;;;;;15.03;66.62;100416.75;4943375;29;20474;-63
2022/05/27 03:29:31;;;;;;;7.53;3.70;;;;;;;15.04;66.83;100423.72;4958602;29;20058;-63
2022/05/27 03:32:44;;;;;;;8.50;4.15;;;;;;;15.04;66.75;100421.13;4943076;29;20517;-63
2022/05/27 03:35:56;;;;;;;6.97;3.60;;;;;;;15.05;66.85;100417.66;4958640;29;20074;-64
2022/05/27 03:38:59;;;;;;;7.15;3.60;;;;;;;15.04;66.86;100405.47;4942641;29;20102;-63
2022/05/27 03:42:11;;;;;;;8.00;3.45;;;;;;;15.04;67.06;100408.06;4943865;29;20062;-63
2022/05/27 03:45:09;;;;;;;9.20;3.28;;;;;;;15.04;67.12;100405.47;4944154;29;20050;-63
2022/05/27 03:48:08;;;;;;;9.27;3.83;;;;;;;15.03;67.23;100408.94;4944968;29;20546;-63
2022/05/27 03:51:32;;;;;;;6.18;3.70;;;;;;;15.02;67.47;100409.81;4943330;29;20554;-63
2022/05/27 03:54:38;;;;;;;8.95;3.85;;;;;;;15.01;67.26;100414.16;4943347;29;20455;-63
2022/05/27 03:57:30;;;;;;;7.38;3.40;;;;;;;15.03;67.17;100420.25;4942873;29;20051;-63
2022/05/27 04:00:28;;;;;;;8.05;3.80;;;;;;;15.02;67.15;100413.28;4943398;29;20109;-63
2022/05/27 04:03:30;;;;;;;7.18;3.70;;;;;;;15.02;67.22;100415.91;4943445;29;20415;-63
2022/05/27 04:06:28;;;;;;;6.93;4.05;;;;;;;15.03;67.38;100414.16;4943553;29;20056;-63
2022/05/27 04:09:23;;;;;;;12.18;3.97;;;;;;;15.03;67.47;100414.16;4943642;29;20131;-63
2022/05/27 04:12:08;;;;;;;6.55;3.40;;;;;;;15.02;67.44;100415.91;4942568;29;20443;-63
2022/05/27 04:15:09;;;;;;;6.47;3.97;;;;;;;15.03;67.28;100404.59;4956922;29;20081;-63
2022/05/27 04:18:08;;;;;;;13.02;4.00;;;;;;;15.03;67.73;100422.88;4942204;29;20090;-62
2022/05/27 04:21:09;;;;;;;10.13;3.38;;;;;;;15.00;67.63;100416.78;4956763;29;20078;-63
2022/05/27 04:24:07;;;;;;;10.85;4.07;;;;;;;15.01;67.64;100424.59;4942697;29;20505;-63
2022/05/27 04:27:11;;;;;;;8.32;4.30;;;;;;;15.01;67.85;100418.53;4957841;29;20406;-63
2022/05/27 04:30:09;;;;;;;8.25;3.20;;;;;;;14.99;67.79;100422.84;4944072;29;20058;-63
2022/05/27 04:33:08;;;;;;;10.90;3.72;;;;;;;14.99;67.81;100425.47;4943186;29;20086;-63
2022/05/27 04:36:17;;;;;;;9.93;3.70;;;;;;;14.96;68.15;100421.09;4958078;29;20111;-64
2022/05/27 04:39:16;;;;;;;6.03;3.63;;;;;;;14.99;68.02;100426.31;4957761;29;20189;-63
2022/05/27 04:42:00;;;;;;;9.43;3.72;;;;;;;14.99;67.95;100422.84;4941689;28;20526;-63
2022/05/27 04:44:45;;;;;;;11.75;4.38;;;;;;;14.99;67.98;100418.50;4956316;29;20066;-64
2022/05/27 04:47:32;;;;;;;5.70;3.70;;;;;;;14.99;67.96;100415.03;4942075;29;20050;-63
2022/05/27 04:50:19;;;;;;;14.63;4.30;;;;;;;15.00;68.14;100419.38;4957407;29;20102;-63
2022/05/27 04:53:10;;;;;;;10.23;4.55;;;;;;;14.99;68.20;100413.28;4956674;29;20105;-63
2022/05/27 04:56:02;;;;;;;9.55;3.38;;;;;;;14.99;68.02;100413.28;4941919;29;20053;-63
2022/05/27 04:58:56;;;;;;;7.32;3.10;;;;;;;14.98;68.02;100408.91;4941596;29;20089;-63
2022/05/27 05:01:52;;;;;;;10.02;4.00;;;;;;;14.99;67.99;100415.88;4955846;29;20113;-63
2022/05/27 05:04:39;;;;;;;10.52;4.28;;;;;;;14.99;68.22;100420.25;4956104;29;20577;-63
2022/05/27 05:07:32;;;;;;;10.00;3.88;;;;;;;14.97;68.21;100414.16;4941537;29;20077;-63
2022/05/27 05:10:31;;;;;;;7.57;4.13;;;;;;;14.97;68.42;100408.94;4942080;29;20050;-62
2022/05/27 05:13:23;;;;;;;12.02;4.97;;;;;;;14.98;68.39;100418.50;4956028;29;20098;-62
2022/05/27 05:16:12;;;;;;;15.48;4.03;;;;;;;14.95;68.54;100408.91;4941052;29;20622;-63
2022/05/27 05:18:59;;;;;;;6.82;3.60;;;;;;;14.96;68.46;100404.56;4941595;29;20415;-63
2022/05/27 05:21:49;;;;;;;11.48;4.97;;;;;;;14.97;68.43;100408.94;4955672;29;20130;-63
2022/05/27 05:24:44;;;;;;;8.13;3.92;;;;;;;14.95;68.54;100410.66;4941074;29;20054;-63
2022/05/27 05:27:46;;;;;;;11.10;4.95;;;;;;;14.94;68.65;100420.25;4955953;29;20414;-63
2022/05/27 05:30:36;;;;;;;14.18;4.70;;;;;;;14.95;68.55;100428.91;4956082;29;20125;-63
2022/05/27 05:33:33;;;;;;;7.78;3.95;;;;;;;14.95;68.69;100426.31;4941468;29;20050;-63
2022/05/27 05:36:34;;;;;;;15.82;4.95;;;;;;;14.93;68.91;100426.31;4941069;29;20058;-64
2022/05/27 05:39:18;;;;;;;11.20;5.28;;;;;;;14.92;69.00;100424.56;4955218;29;20098;-63
2022/05/27 05:42:04;;;;;;;15.50;4.57;;;;;;;14.96;68.68;100430.66;4955376;29;20119;-63
2022/05/27 05:45:02;;;;;;;10.15;4.78;;;;;;;14.95;68.85;100431.53;4941140;29;20134;-63
2022/05/27 05:47:52;;;;;;;8.88;4.80;;;;;;;14.96;68.84;100436.75;4940767;29;20059;-63
2022/05/27 05:50:48;;;;;;;9.90;4.57;;;;;;;14.96;68.93;100435.88;4940167;29;20050;-63
2022/05/27 05:53:43;;;;;;;11.07;4.85;;;;;;;14.96;69.01;100430.66;4955374;28;20074;-63
2022/05/27 05:56:37;;;;;;;11.27;4.43;;;;;;;14.96;68.99;100428.06;4955439;29;20415;-63
2022/05/27 05:59:34;;;;;;;8.50;3.97;;;;;;;14.96;69.19;100428.06;4940786;29;20461;-63
2022/05/27 06:02:29;;;;;;;8.48;4.90;;;;;;;14.96;68.99;100430.66;4955503;29;20065;-63
2022/05/27 06:05:15;;;;;;;;;;;;;;;14.95;69.15;100429.78;4941215;29;20522;-63
2022/05/27 06:08:02;;;;;;;11.52;4.65;;;;;;;14.96;69.16;100428.06;4941138;29;19980;-63
2022/05/27 06:11:00;;;;;;;8.85;4.47;;;;;;;14.95;69.30;100434.16;4954810;29;20423;-62
2022/05/27 06:13:50;;;;;;;8.00;4.40;;;;;;;14.92;69.41;100442.84;4941102;29;20557;-63
2022/05/27 06:16:45;;;;;;;6.95;4.05;;;;;;;14.92;69.39;100445.44;4940780;29;20102;-64
2022/05/27 06:19:34;;;;;;;6.90;4.22;;;;;;;14.91;69.43;100446.31;4955127;29;20053;-62
2022/05/27 06:22:31;;;;;;;6.28;3.60;;;;;;;14.92;69.56;100448.06;4940932;29;20066;-63
2022/05/27 06:25:29;;;;;;;5.68;3.83;;;;;;;14.94;69.60;100456.78;4955154;29;20051;-63
2022/05/27 06:34:26;;;;;;;7.43;4.25;;;;;;;14.94;69.67;100448.06;4955067;29;20058;-63
2022/05/27 06:37:21;;;;;;;6.60;3.97;;;;;;;14.92;69.62;100459.34;4940402;29;20133;-64
2022/05/27 06:40:16;;;;;;;5.60;3.88;;;;;;;14.92;69.95;100464.56;4940025;29;20050;-64
2022/05/27 06:43:03;;;;;;;5.07;3.53;;;;;;;14.92;69.95;100461.97;4954835;29;20105;-64
2022/05/27 06:45:56;;;;;;;4.95;3.55;;;;;;;14.92;70.00;100461.97;4940347;29;20090;-63
2022/05/27 06:48:57;;;;;;;5.97;3.60;;;;;;;14.92;70.19;100456.75;4940540;29;20079;-63
2022/05/27 06:51:43;;;;;;;9.00;3.90;;;;;;;14.95;69.55;100465.47;4940741;29;20482;-63
2022/05/27 06:54:27;;;;;;;5.28;3.58;;;;;;;14.97;69.88;100468.94;4954999;29;20186;-63
2022/05/27 06:57:12;;;;;;;6.53;3.40;;;;;;;14.97;70.13;100464.59;4954975;29;20407;-63
2022/05/27 07:00:05;;;;;;;;;;;;;;;14.97;69.86;100463.72;4940603;29;20103;-63
2022/05/27 07:02:58;;;;;;;5.93;3.50;;;;;;;14.94;70.04;100468.94;4939876;29;19953;-63
2022/05/27 07:05:45;;;;;;;3.70;3.13;;;;;;;14.96;70.22;100468.06;4940521;29;20061;-63
2022/05/27 07:08:36;;;;;;;6.10;3.33;;;;;;;14.98;70.32;100468.09;4958651;29;20126;-63
2022/05/27 07:11:34;;;;;;;4.90;3.17;;;;;;;14.97;70.09;100469.81;4943454;29;20059;-64
2022/05/27 07:14:29;;;;;;;3.78;2.80;;;;;;;14.97;70.57;100464.59;4943597;29;20054;-63
2022/05/27 07:17:21;;;;;;;6.55;3.25;;;;;;;14.99;70.44;100469.84;4943913;29;20054;-64
2022/05/27 07:20:06;;;;;;;4.28;3.08;;;;;;;15.00;70.25;100479.41;4943372;29;20046;-63
2022/05/27 07:22:53;;;;;;;5.00;2.85;;;;;;;15.00;70.54;100484.63;4958065;29;20046;-63
2022/05/27 07:25:46;;;;;;;6.63;3.38;;;;;;;15.01;70.51;100487.25;4943826;29;20054;-63
2022/05/27 07:28:39;;;;;;;4.82;3.08;;;;;;;14.97;70.78;100487.22;4943419;29;20574;-63
2022/05/27 07:31:29;;;;;;;5.55;3.65;;;;;;;15.00;70.70;100488.09;4943815;29;20407;-63
2022/05/27 07:34:24;;;;;;;4.05;3.30;;;;;;;14.99;70.68;100490.72;4942711;29;20106;-63
2022/05/27 07:37:17;;;;;;;5.10;3.55;;;;;;;15.00;70.78;100492.47;4943217;29;20098;-64
2022/05/27 07:40:09;;;;;;;5.00;3.80;;;;;;;15.03;70.73;100500.28;4943086;29;20046;-63
2022/05/27 07:42:53;;;;;;;3.88;3.25;;;;;;;15.00;70.75;100505.50;4957474;29;20530;-63
2022/05/27 07:45:45;;;;;;;4.47;3.33;;;;;;;15.00;70.81;100501.16;4957771;29;20550;-63
2022/05/27 07:48:38;;;;;;;6.43;3.33;;;;;;;14.98;71.01;100508.09;4957548;29;20130;-63
2022/05/27 07:51:22;;;;;;;4.78;3.45;;;;;;;14.97;71.19;100508.09;4957854;29;20050;-63
2022/05/27 07:54:17;;;;;;;;;;;;;;;14.99;70.82;100509.84;4957845;29;20058;-63
2022/05/27 07:57:27;;;;;;;7.25;4.22;;;;;;;14.97;71.02;100503.75;4943169;29;19921;-63
2022/05/27 08:00:18;;;;;;;5.15;4.13;;;;;;;14.98;71.10;100513.31;4942684;29;20058;-63
2022/05/27 08:03:03;;;;;;;8.80;4.82;;;;;;;14.98;71.30;100505.50;4936955;29;20067;-63
2022/05/27 08:05:50;;;;;;;9.95;5.32;;;;;;;15.00;71.09;100508.97;4937928;29;20074;-63
2022/05/27 08:08:34;;;;;;;10.27;4.03;;;;;;;15.01;71.10;100499.44;4937178;29;20146;-63
2022/05/27 08:11:27;;;;;;;;;;;;;;;15.02;71.16;100504.66;4938729;29;20043;-64
2022/05/27 08:14:19;;;;;;;6.47;4.43;;;;;;;15.03;71.19;100501.16;4936781;29;19957;-63
2022/05/27 08:17:06;;;;;;;9.32;4.85;;;;;;;15.05;71.32;100515.09;4937246;29;20059;-62
2022/05/27 08:20:00;;;;;;;9.85;5.85;;;;;;;15.06;71.17;100511.63;4937497;29;20090;-63
2022/05/27 08:22:47;;;;;;;8.45;5.63;;;;;;;15.07;71.31;100507.28;4936865;29;20066;-63
2022/05/27 08:25:39;;;;;;;11.40;6.32;;;;;;;15.05;71.54;100504.66;4936683;29;20411;-63
2022/05/27 08:28:31;;;;;;;13.90;7.88;;;;;;;15.11;71.44;100503.81;4937300;29;20106;-63
2022/05/27 08:31:21;;;;;;;9.70;7.03;;;;;;;15.10;71.62;100509.91;4936824;29;20051;-63
2022/05/27 08:40:44;;;;;;;11.82;6.05;;;;;;;15.17;71.36;100510.81;4937514;29;20074;-63
2022/05/27 08:44:13;;;;;;;8.48;5.38;;;;;;;15.19;71.30;100512.53;4936702;29;20451;-63
2022/05/27 08:47:00;;;;;;;10.48;7.50;;;;;;;15.23;71.38;100513.44;4879096;29;20064;-63
2022/05/27 08:49:57;;;;;;;8.00;6.15;;;;;;;15.23;71.23;100519.53;4878574;29;20060;-62
2022/05/27 08:52:57;;;;;;;7.32;5.72;;;;;;;15.23;71.13;100511.69;4935987;29;20124;-64
2022/05/27 08:59:32;;;;;;;11.25;6.68;;;;;;;15.25;71.08;100500.38;4937143;29;20107;-63
2022/05/27 09:02:31;;;;;;;7.68;6.25;;;;;;;15.26;71.23;100505.59;4945437;29;20063;-63
2022/05/27 09:05:28;;;;;;;9.98;6.80;;;;;;;15.27;71.25;100507.34;4941167;29;20050;-63
2022/05/27 09:08:24;;;;;;;7.55;5.72;;;;;;;15.27;71.03;100515.19;4956382;29;20054;-62
2022/05/27 09:11:31;;;;;;;9.88;6.32;;;;;;;15.29;71.07;100523.03;4955810;29;20055;-63
2022/05/27 09:14:35;;;;;;;10.40;7.03;;;;;;;15.32;71.00;100523.06;4941387;29;20098;-63
2022/05/27 09:17:48;;;;;;;14.15;6.78;;;;;;;15.31;71.19;100522.19;4955707;29;20054;-63
2022/05/27 09:20:51;;;;;;;8.93;6.22;;;;;;;15.32;70.87;100520.47;4927919;29;20519;-63
2022/05/27 09:23:47;;;;;;;11.27;7.03;;;;;;;15.33;70.90;100507.38;4941555;29;20074;-63
2022/05/27 09:27:16;;;;;;;9.98;7.03;;;;;;;15.36;70.95;100512.63;4941215;29;20042;-63
2022/05/27 09:30:18;;;;;;;10.52;6.47;;;;;;;15.38;70.87;100512.63;4955361;28;20094;-62
2022/05/27 09:33:19;;;;;;;9.57;6.63;;;;;;;15.40;70.88;100520.47;4955694;29;20118;-63
2022/05/27 09:36:21;;;;;;;11.40;6.68;;;;;;;15.42;70.81;100514.38;4941302;29;20142;-63
2022/05/27 09:39:11;;;;;;;9.77;6.40;;;;;;;15.42;70.80;100511.78;4940742;29;20098;-63
2022/05/27 09:42:00;;;;;;;9.32;6.25;;;;;;;15.45;70.79;100506.56;4941366;29;20046;-63
2022/05/27 09:44:54;;;;;;;13.95;6.20;;;;;;;15.47;70.65;100509.19;4955558;29;20062;-63
2022/05/27 09:47:56;;;;;;;9.70;6.68;;;;;;;15.46;70.72;100499.59;4940888;29;20050;-64
2022/05/27 09:50:54;;;;;;;10.23;6.50;;;;;;;15.46;70.54;100504.81;4941438;29;20187;-63
2022/05/27 09:53:52;;;;;;;9.43;6.07;;;;;;;15.48;70.59;100511.81;4941000;29;20126;-62
2022/05/27 09:57:03;;;;;;;11.07;6.22;;;;;;;15.53;70.39;100512.69;4940666;29;20123;-63
2022/05/27 10:00:02;;;;;;;9.00;6.63;;;;;;;15.53;70.49;100517.91;4940684;29;20051;-63
2022/05/27 10:02:49;;;;;;;7.45;5.70;;;;;;;15.56;70.46;100508.34;4934769;29;20115;-62
2022/05/27 10:05:42;;;;;;;8.27;5.05;;;;;;;15.57;70.16;100510.06;4935746;29;20055;-63
2022/05/27 10:08:50;;;;;;;7.00;4.72;;;;;;;15.60;70.00;100504.88;4935515;29;20583;-63
2022/05/27 10:11:52;;;;;;;8.10;5.38;;;;;;;15.59;70.00;100519.66;4936227;29;20054;-63
2022/05/27 10:14:56;;;;;;;8.52;5.30;;;;;;;15.59;70.03;100510.97;4936137;29;20091;-63
2022/05/27 10:17:51;;;;;;;11.80;5.30;;;;;;;15.60;70.11;100499.66;4935905;29;20046;-63
2022/05/27 10:20:47;;;;;;;9.75;5.80;;;;;;;15.64;69.84;100504.88;4936286;29;20522;-62
2022/05/27 10:23:35;;;;;;;8.70;5.72;;;;;;;15.65;69.77;100506.63;4935302;29;20578;-63
2022/05/27 10:26:35;;;;;;;9.50;5.13;;;;;;;15.67;69.83;100507.50;4935428;29;20131;-63
2022/05/27 10:29:37;;;;;;;11.68;4.97;;;;;;;15.66;69.85;100504.88;4935351;29;20483;-63
2022/05/27 10:32:50;;;;;;;6.45;4.43;;;;;;;15.65;69.77;100501.41;4936102;29;20075;-62
2022/05/27 10:35:49;;;;;;;8.98;3.92;;;;;;;15.65;69.47;100503.13;4934729;29;20455;-63
2022/05/27 10:38:53;;;;;;;6.65;4.20;;;;;;;15.63;69.48;100500.50;4935623;29;20595;-63
2022/05/27 10:42:02;;;;;;;7.15;4.25;;;;;;;15.62;69.51;100506.59;4937362;29;20090;-62
2022/05/27 10:45:17;;;;;;;6.32;4.55;;;;;;;15.60;69.58;100512.72;4940054;29;20078;-63
2022/05/27 10:48:24;;;;;;;6.28;4.25;;;;;;;15.59;69.77;100513.56;4923079;29;20067;-63
2022/05/27 10:51:21;;;;;;;9.30;4.40;;;;;;;15.61;69.54;100497.03;4939021;29;20050;-63
2022/05/27 10:54:46;;;;;;;8.10;3.97;;;;;;;15.64;69.29;100501.41;4938359;29;20155;-64
2022/05/27 11:04:54;;;;;;;5.90;3.53;;;;;;;15.63;69.50;100494.44;4934461;29;20106;-63
2022/05/27 11:07:47;;;;;;;7.20;4.18;;;;;;;15.63;69.26;100492.69;4938275;29;20106;-63
2022/05/27 11:10:57;;;;;;;5.32;3.25;;;;;;;15.64;69.17;100491.81;4938083;29;20055;-63
2022/05/27 11:17:33;;;;;;;6.60;3.38;;;;;;;15.64;69.11;100494.44;4938939;29;20094;-63
2022/05/27 11:20:41;;;;;;;4.97;3.67;;;;;;;15.62;69.02;100500.53;4938241;29;20051;-64
2022/05/27 11:23:54;;;;;;;6.00;3.67;;;;;;;15.60;69.02;100503.13;4938005;29;20058;-64
2022/05/27 11:27:05;;;;;;;8.77;3.63;;;;;;;15.59;68.87;100493.53;4938095;29;20080;-62
2022/05/27 11:30:48;;;;;;;6.10;3.00;;;;;;;15.62;68.76;100497.91;4937988;29;20055;-63
2022/05/27 11:33:57;;;;;;;6.72;3.15;;;;;;;15.60;68.94;100497.03;4909323;29;20057;-63
2022/05/27 11:37:22;;;;;;;4.88;2.90;;;;;;;15.62;68.78;100503.13;4937960;29;20083;-63
2022/05/27 11:40:41;;;;;;;8.48;3.25;;;;;;;15.63;68.79;100497.03;4937271;29;20051;-63
2022/05/27 11:43:31;;;;;;;6.88;3.45;;;;;;;15.63;68.81;100497.03;4938685;29;20051;-63
2022/05/27 11:46:39;;;;;;;5.18;2.80;;;;;;;15.64;68.80;100489.19;4937285;29;20106;-63
2022/05/27 11:50:03;;;;;;;4.05;2.80;;;;;;;15.67;68.48;100499.66;4938265;29;20054;-63
2022/05/27 11:53:02;;;;;;;5.90;2.70;;;;;;;15.65;68.52;100485.72;4928236;29;20562;-63
2022/05/27 11:56:04;;;;;;;6.15;3.22;;;;;;;15.66;68.30;100483.97;4937592;29;20510;-62
2022/05/27 11:59:31;;;;;;;6.45;2.78;;;;;;;15.65;68.26;100482.22;4937109;29;20073;-63
2022/05/27 12:02:37;;;;;;;3.80;2.58;;;;;;;15.65;68.04;100479.59;4917997;29;20058;-63
2022/05/27 12:05:26;;;;;;;5.63;3.17;;;;;;;15.67;68.30;100488.31;4937740;29;20085;-62
2022/05/27 12:08:33;;;;;;;6.68;3.10;;;;;;;15.68;67.98;100498.78;4937442;29;20147;-64
2022/05/27 12:11:29;;;;;;;9.48;3.10;;;;;;;15.71;68.04;100492.69;4937107;29;20062;-63
2022/05/27 12:14:25;;;;;;;6.78;3.13;;;;;;;15.74;68.16;100478.75;4936678;29;20058;-63
2022/05/27 12:17:22;;;;;;;5.90;3.30;;;;;;;15.74;67.95;100484.88;4936993;29;20183;-64
2022/05/27 12:20:22;;;;;;;4.03;2.67;;;;;;;15.72;68.03;100486.59;4936669;29;20480;-63
2022/05/27 12:23:12;;;;;;;5.88;2.70;;;;;;;15.72;68.06;100478.75;4937818;29;20570;-63
2022/05/27 12:26:04;;;;;;;6.00;2.72;;;;;;;15.73;67.80;100487.47;4936743;29;20047;-63
2022/05/27 12:28:57;;;;;;;6.05;3.55;;;;;;;15.73;67.83;100482.22;4937377;29;20556;-63
2022/05/27 12:31:48;;;;;;;3.65;2.70;;;;;;;15.75;67.91;100485.72;4937612;29;20534;-63
2022/05/27 12:34:43;;;;;;;6.55;3.15;;;;;;;15.75;67.90;100489.22;4936613;29;20051;-63
2022/05/27 12:37:28;;;;;;;6.38;3.08;;;;;;;15.75;67.62;100484.00;4937354;29;20055;-63
2022/05/27 12:40:18;;;;;;;9.80;3.13;;;;;;;15.75;67.99;100475.28;4937414;29;20079;-63
2022/05/27 12:43:20;;;;;;;6.18;2.80;;;;;;;15.79;67.57;100480.53;4937235;29;20078;-63
2022/05/27 12:46:44;;;;;;;4.43;2.88;;;;;;;15.79;67.44;100483.16;4936462;29;20538;-63
2022/05/27 12:50:01;;;;;;;4.97;2.83;;;;;;;15.79;67.68;100487.47;4936659;29;20134;-64
2022/05/27 12:52:58;;;;;;;8.65;3.60;;;;;;;15.80;67.54;100478.78;4937006;29;20058;-64
2022/05/27 13:02:38;;;;;;;5.93;3.03;;;;;;;15.82;67.36;100477.03;4946489;29;20167;-63
2022/05/27 13:05:48;;;;;;;5.72;3.03;;;;;;;15.81;67.30;100481.38;4941072;29;20065;-63
2022/05/27 13:08:53;;;;;;;8.63;2.90;;;;;;;15.79;67.21;100477.91;4941420;29;20110;-64
2022/05/27 13:11:38;;;;;;;7.20;3.60;;;;;;;15.81;67.01;100472.69;4953285;29;20463;-63
2022/05/27 13:14:38;;;;;;;7.45;2.92;;;;;;;15.81;67.01;100470.06;4955958;29;20075;-62
2022/05/27 13:17:35;;;;;;;7.22;2.97;;;;;;;15.83;67.10;100473.56;4956524;29;20419;-64
2022/05/27 13:20:38;;;;;;;5.22;3.13;;;;;;;15.83;67.00;100477.03;4955890;29;20051;-63
2022/05/27 13:23:31;;;;;;;6.97;2.92;;;;;;;15.86;66.92;100478.81;4941202;29;20408;-63
2022/05/27 13:26:29;;;;;;;6.55;3.45;;;;;;;15.84;66.90;100473.53;4955755;29;20114;-63
2022/05/27 13:29:28;;;;;;;7.45;2.95;;;;;;;15.86;66.54;100483.16;4941343;29;20049;-64
2022/05/27 13:32:26;;;;;;;7.45;2.92;;;;;;;15.86;66.43;100472.72;4941350;29;20054;-62
2022/05/27 13:35:27;;;;;;;8.63;3.47;;;;;;;15.89;66.50;100475.34;4941294;29;20078;-64
2022/05/27 13:38:20;;;;;;;6.68;3.08;;;;;;;15.88;66.36;100477.09;4955736;29;20122;-64
2022/05/27 13:41:14;;;;;;;13.80;4.22;;;;;;;15.90;66.47;100477.94;4941453;29;20417;-63
2022/05/27 13:44:02;;;;;;;6.25;2.75;;;;;;;15.86;66.43;100471.00;4941026;29;20051;-63
2022/05/27 13:46:58;;;;;;;8.55;2.80;;;;;;;15.85;66.47;100474.47;4941553;29;20042;-63
2022/05/27 13:49:54;;;;;;;10.25;3.17;;;;;;;15.84;66.36;100473.53;4941086;29;20131;-63
2022/05/27 13:52:44;;;;;;;7.80;3.40;;;;;;;15.87;66.25;100477.06;4955824;29;20046;-64
2022/05/27 13:55:32;;;;;;;6.40;2.92;;;;;;;15.87;66.45;100474.47;4955241;29;20053;-63
2022/05/27 13:58:19;;;;;;;6.15;2.88;;;;;;;15.85;65.88;100479.69;4955377;29;20573;-63
2022/05/27 14:01:11;;;;;;;8.45;2.90;;;;;;;15.84;65.88;100481.38;4940745;29;20090;-63
2022/05/27 14:04:04;;;;;;;8.45;3.25;;;;;;;15.84;66.21;100484.00;4955214;29;20463;-63
2022/05/27 14:06:48;;;;;;;8.18;3.05;;;;;;;15.84;66.04;100480.53;4941148;29;20090;-63
2022/05/27 14:09:34;;;;;;;6.63;3.05;;;;;;;15.86;65.99;100488.41;4955106;29;20106;-63
2022/05/27 14:12:29;;;;;;;9.20;4.03;;;;;;;15.84;65.98;100494.44;4941242;29;20055;-63
2022/05/27 14:15:20;;;;;;;6.07;3.22;;;;;;;15.83;66.02;100495.31;4941872;29;20050;-63
2022/05/27 14:18:12;;;;;;;9.85;3.15;;;;;;;15.85;65.99;100484.91;4944848;29;20101;-63
2022/05/27 14:24:26;;;;;;;6.32;3.20;;;;;;;15.86;65.78;100489.28;4959175;29;20078;-64
2022/05/27 14:27:26;;;;;;;7.43;3.78;;;;;;;15.89;65.64;100498.84;4959004;29;20502;-64
2022/05/27 14:30:21;;;;;;;8.25;3.00;;;;;;;15.87;65.52;100487.53;4944120;29;20423;-63